TFM - Tactical Decision Aid (Experimental) INFO Settings
ID: Runway Winds: CIG/VIS Threshold: METAR Board: Map:

KCLT - Charlotte-Douglas Intl

Updated at: 1922 UTC 29 Apr 2017
Latest TAF at: 1721 UTC 29 Apr 2017

TAF Board

Time1852Z29/20Z29/21Z29/22Z29/23Z30/00Z30/01Z30/02Z30/03Z30/04Z30/05Z30/06Z30/07Z30/08Z
TypeOBSPRVLPRVLPRVLPRVLPRVLPRVLPRVLPRVLPRVLPRVLPRVLPRVLPRVL
VIS10>6>6>6>6>6>6>6>6>6>6>644
CIG31250250250250250250250250505050----
CoverBKNBKNBKNBKNBKNBKNBKNBKNBKNBKNBKNBKNSCTSCT
FltCatVFRVFRVFRVFRVFRVFRVFRVFRVFRVFRVFRVFRMVFRMVFR
WX------------------------BRBR
WDir180190190190190190190190190160160160180180
WSpd11101010101010101055544
WGst----------------------------
TAF
KCLT 291721Z 2918/3018 20010KT P6SM FEW028
  FM292000 19010KT P6SM SCT050 BKN250
  FM300400 16005KT P6SM BKN050
  FM300700 18004KT 4SM BR SCT008
  FM301000 18004KT 4SM BR OVC006
  FM301500 19006KT P6SM BKN015


METAR
KCLT 291852Z 18011KT 10SM BKN031 BKN055 BKN250 29/21 A3017 RMK AO2 SLP206 T02940211

TAF/METAR Board Legend

Potential Impact
  None Marginal Slight Moderate High
Visibility (sm) >5 3≤X≤5 1≤X<3 0.5≤X<1 <0.5
Ceiling (100 ft) >30 10≤X≤30 4≤X<10 2≤X<4 <2
Wind Speed (kt) <10 10≤X<20 20≤X<30 ≥30
Wind Gust (kt) <15 15≤X<25 25≤X<35 ≥35
Weather No Wx Reported VCTS -TS,-FZRA TS,FZRA +TS,+FZRA



Page loaded:  19:22 UTC  |   12:22 PM Pacific  |   01:22 PM Mountain  |   02:22 PM Central  |   03:22 PM Eastern

 

ADVISORIES

FORECASTS

FORECASTS

OBSERVATIONS

USER TOOLS

ABOUT US